Time;durP1;ratioP1;P1;durP2;ratioP2;P2;SDS_P1;SDS_P2;PMS_P1;PMS_P2;Temp;Humidity;BMP_temperature;BMP_pressure;BME280_temperature;BME280_humidity;BME280_pressure;Samples;Min_cycle;Max_cycle;Signal;HPM_P1;HPM_P2
2021/03/13 00:44:54;;;;;;;3.67;1.33;;;2.30;85.10;;;;;;5412375;23;20469;-96
2021/03/13 01:43:34;;;;;;;3.77;1.10;;;3.10;78.30;;;;;;4339315;23;21948;-94
2021/03/13 01:52:57;;;;;;;2.75;0.80;;;2.90;79.30;;;;;;5308028;23;20468;-94
2021/03/13 01:55:38;;;;;;;2.55;1.00;;;2.80;79.60;;;;;;5018390;28;20858;-95
2021/03/13 03:22:42;;;;;;;4.13;0.80;;;3.60;72.80;;;;;;5304142;23;20452;-96
2021/03/13 03:49:12;;;;;;;3.40;1.13;;;3.80;71.70;;;;;;4974322;28;20416;-96
2021/03/13 04:45:35;;;;;;;1.50;0.70;;;3.40;72.70;;;;;;2610044;23;20727;-96
2021/03/13 07:42:14;;;;;;;1.50;0.70;;;4.90;73.10;;;;;;3435306;23;20640;-88
2021/03/13 07:44:41;;;;;;;2.60;0.60;;;5.20;71.30;;;;;;4938645;29;20419;-90
2021/03/13 07:47:17;;;;;;;0.80;0.50;;;5.30;70.90;;;;;;4942071;29;20516;-90
2021/03/13 07:49:46;;;;;;;2.13;1.10;;;5.60;71.00;;;;;;4922891;29;20432;-89
2021/03/13 07:52:16;;;;;;;1.15;0.63;;;5.70;70.00;;;;;;4923217;29;20431;-90
2021/03/13 07:54:51;;;;;;;1.92;0.80;;;5.70;69.10;;;;;;4925298;29;20423;-91
2021/03/13 07:57:19;;;;;;;1.00;0.60;;;5.90;68.00;;;;;;4929455;29;20426;-88
2021/03/13 07:59:51;;;;;;;2.00;0.60;;;5.90;68.40;;;;;;4929048;29;20431;-88
2021/03/13 08:02:28;;;;;;;1.33;0.60;;;5.80;68.30;;;;;;4926875;29;20430;-89
2021/03/13 08:05:07;;;;;;;1.90;0.60;;;5.90;68.20;;;;;;4928527;29;21229;-91
2021/03/13 08:08:00;;;;;;;1.08;0.50;;;5.80;67.80;;;;;;4927784;29;20929;-89
2021/03/13 08:10:45;;;;;;;1.80;0.88;;;6.00;67.50;;;;;;4945011;29;20431;-89
2021/03/13 08:13:38;;;;;;;1.75;0.57;;;6.20;67.70;;;;;;4946308;29;20439;-91
2021/03/13 08:16:11;;;;;;;0.70;0.40;;;6.30;67.30;;;;;;4943427;29;20432;-89
2021/03/13 08:18:50;;;;;;;3.72;0.60;;;6.30;67.20;;;;;;4944189;29;20431;-90
2021/03/13 08:21:21;;;;;;;1.25;0.75;;;6.40;67.20;;;;;;4945148;29;20437;-91
2021/03/13 08:24:02;;;;;;;2.03;0.68;;;6.50;65.90;;;;;;4944015;29;20431;-91
2021/03/13 08:26:44;;;;;;;3.47;1.20;;;6.50;66.50;;;;;;4947782;29;20451;-91
2021/03/13 08:29:52;;;;;;;1.33;0.65;;;6.50;65.40;;;;;;4945589;29;20451;-95
2021/03/13 08:32:59;;;;;;;1.70;0.50;;;6.50;66.80;;;;;;4927077;29;20512;-89
2021/03/13 08:35:48;;;;;;;1.20;0.60;;;6.50;67.50;;;;;;4927182;29;20494;-89
2021/03/13 08:38:19;;;;;;;0.95;0.55;;;6.50;65.80;;;;;;4925431;29;20459;-91
2021/03/13 08:40:52;;;;;;;0.95;0.70;;;6.50;66.70;;;;;;4926415;29;20969;-89
2021/03/13 08:43:39;;;;;;;2.03;0.50;;;6.50;67.70;;;;;;4926754;29;20954;-90
2021/03/13 08:46:45;;;;;;;1.37;0.60;;;6.60;66.80;;;;;;4925815;29;20439;-90
2021/03/13 08:49:28;;;;;;;0.68;0.40;;;6.50;66.90;;;;;;4942160;29;20522;-89
2021/03/13 08:52:10;;;;;;;1.55;0.80;;;6.60;66.90;;;;;;4927044;29;20442;-91
2021/03/13 08:54:41;;;;;;;0.50;0.50;;;6.50;66.00;;;;;;4927162;29;20419;-89
2021/03/13 08:57:12;;;;;;;0.85;0.50;;;6.50;66.60;;;;;;4942929;29;20419;-89
2021/03/13 09:00:00;;;;;;;2.00;0.73;;;6.40;67.50;;;;;;4941991;29;20454;-90
2021/03/13 09:02:34;;;;;;;1.40;0.60;;;6.40;68.60;;;;;;4926131;29;20934;-90
2021/03/13 09:05:10;;;;;;;1.45;0.82;;;6.30;68.40;;;;;;4925730;29;20804;-90
2021/03/13 09:07:38;;;;;;;1.85;1.00;;;6.30;67.90;;;;;;4942658;29;20431;-90
2021/03/13 09:10:07;;;;;;;3.30;0.82;;;6.40;69.10;;;;;;4926945;29;20424;-89
2021/03/13 09:12:36;;;;;;;6.60;1.75;;;6.50;69.10;;;;;;4926908;29;20455;-89
2021/03/13 09:15:06;;;;;;;3.13;1.10;;;6.50;69.30;;;;;;4943496;29;20431;-91
2021/03/13 09:17:35;;;;;;;5.35;1.45;;;6.40;69.10;;;;;;4927124;29;20763;-89
2021/03/13 09:20:16;;;;;;;1.95;0.82;;;6.40;70.30;;;;;;4943711;29;20423;-89
2021/03/13 09:22:47;;;;;;;2.83;1.08;;;6.50;69.80;;;;;;4925367;29;20431;-90
2021/03/13 09:25:22;;;;;;;3.65;1.15;;;6.60;69.30;;;;;;4926955;29;20427;-91
2021/03/13 09:27:51;;;;;;;1.40;0.73;;;6.80;68.00;;;;;;4926397;29;20494;-90
2021/03/13 09:30:21;;;;;;;7.22;2.75;;;6.70;68.50;;;;;;4925708;29;20954;-91
2021/03/13 09:32:50;;;;;;;5.60;2.53;;;6.70;67.50;;;;;;4926714;29;20431;-90
2021/03/13 09:35:21;;;;;;;5.77;2.23;;;6.80;67.40;;;;;;4926642;29;20768;-90
2021/03/13 09:37:48;;;;;;;2.42;0.70;;;7.00;67.00;;;;;;4927817;29;20438;-90
2021/03/13 09:40:22;;;;;;;2.60;0.80;;;7.20;67.00;;;;;;4926022;29;20470;-89
2021/03/13 09:43:16;;;;;;;2.03;0.60;;;7.40;65.70;;;;;;4929386;29;20435;-90
2021/03/13 09:45:46;;;;;;;2.17;0.65;;;7.60;65.40;;;;;;4927915;29;20439;-91
2021/03/13 09:48:16;;;;;;;1.52;0.60;;;7.60;64.60;;;;;;4927970;29;20427;-95
2021/03/13 09:50:44;;;;;;;1.60;0.85;;;7.70;63.60;;;;;;4942047;29;20428;-89
2021/03/13 09:53:12;;;;;;;1.70;0.70;;;7.50;64.20;;;;;;4925468;29;20918;-89
2021/03/13 09:55:38;;;;;;;5.07;1.30;;;7.50;64.30;;;;;;4925569;29;20780;-89
2021/03/13 09:58:17;;;;;;;4.28;1.20;;;7.70;65.80;;;;;;4944112;29;20910;-89
2021/03/13 10:00:44;;;;;;;1.50;0.60;;;8.00;64.20;;;;;;4941105;29;20431;-90
2021/03/13 10:03:16;;;;;;;1.85;0.80;;;8.00;63.30;;;;;;4926062;29;20495;-89
2021/03/13 10:05:53;;;;;;;2.25;0.70;;;7.80;62.10;;;;;;4925812;29;20482;-88
2021/03/13 10:08:33;;;;;;;1.60;0.75;;;7.70;63.80;;;;;;4925643;29;20768;-89
2021/03/13 10:11:02;;;;;;;4.22;0.90;;;7.90;63.30;;;;;;4925164;29;20427;-89
2021/03/13 10:13:32;;;;;;;4.30;1.13;;;7.90;62.40;;;;;;4925389;29;20420;-90
2021/03/13 10:16:11;;;;;;;2.78;0.80;;;8.00;63.40;;;;;;4927487;29;20435;-89
2021/03/13 10:18:39;;;;;;;1.48;0.70;;;8.30;60.90;;;;;;4925029;29;20518;-90
2021/03/13 10:21:07;;;;;;;2.15;0.95;;;8.40;61.20;;;;;;4924622;29;20428;-90
2021/03/13 10:23:37;;;;;;;2.08;0.85;;;8.30;61.20;;;;;;4925894;29;20427;-90
2021/03/13 10:26:17;;;;;;;2.50;0.80;;;8.30;59.90;;;;;;4927171;29;20470;-92
2021/03/13 10:28:49;;;;;;;2.67;0.80;;;8.40;61.20;;;;;;4925393;29;20419;-90
2021/03/13 10:31:29;;;;;;;1.90;0.80;;;8.40;59.50;;;;;;4925437;29;20428;-89
2021/03/13 10:34:21;;;;;;;1.67;0.77;;;8.40;60.10;;;;;;4941407;29;20442;-91
2021/03/13 10:36:51;;;;;;;2.40;0.93;;;8.40;59.20;;;;;;4926026;29;20458;-90
2021/03/13 10:39:52;;;;;;;1.30;0.65;;;8.50;59.60;;;;;;4925647;29;20435;-91
2021/03/13 10:42:23;;;;;;;2.00;0.70;;;8.70;56.70;;;;;;4926772;29;20432;-90
2021/03/13 10:44:51;;;;;;;2.25;0.77;;;8.70;57.70;;;;;;4927855;29;20414;-91
2021/03/13 10:47:45;;;;;;;2.85;1.25;;;8.80;56.00;;;;;;4943087;29;20500;-90
2021/03/13 10:50:13;;;;;;;2.45;0.90;;;9.00;55.50;;;;;;4941478;29;20431;-90
2021/03/13 10:52:41;;;;;;;2.83;0.90;;;9.20;56.20;;;;;;4923498;29;20427;-90
2021/03/13 10:55:10;;;;;;;2.05;0.75;;;9.50;54.10;;;;;;4925332;29;20502;-89
2021/03/13 10:57:59;;;;;;;2.03;0.70;;;9.60;51.30;;;;;;4942140;29;20976;-89
2021/03/13 11:00:27;;;;;;;3.63;1.58;;;9.80;52.20;;;;;;4924739;29;20431;-90
2021/03/13 11:02:57;;;;;;;2.13;1.00;;;10.10;53.00;;;;;;4940733;29;20435;-89
2021/03/13 11:05:24;;;;;;;1.70;0.87;;;10.40;50.80;;;;;;4921837;29;20564;-88
2021/03/13 11:08:02;;;;;;;1.98;0.70;;;10.20;48.50;;;;;;4924196;29;20451;-89
2021/03/13 11:10:31;;;;;;;2.60;1.03;;;10.10;48.90;;;;;;4923734;29;20436;-89
2021/03/13 11:12:58;;;;;;;2.80;0.90;;;10.30;50.50;;;;;;4924150;29;20439;-89
2021/03/13 11:15:24;;;;;;;4.68;0.65;;;10.70;50.60;;;;;;4922946;29;20425;-91
2021/03/13 11:17:57;;;;;;;1.98;0.70;;;10.90;46.60;;;;;;4943975;29;20439;-88
2021/03/13 11:20:25;;;;;;;2.30;1.00;;;10.80;47.90;;;;;;4928190;29;20416;-90
2021/03/13 11:22:52;;;;;;;3.10;0.95;;;10.60;47.50;;;;;;4949655;29;20427;-92
2021/03/13 11:25:19;;;;;;;2.17;0.80;;;10.60;47.50;;;;;;4928133;29;20506;-89
2021/03/13 11:27:52;;;;;;;3.00;0.93;;;10.60;48.40;;;;;;4929727;29;21060;-94
2021/03/13 11:30:55;;;;;;;2.10;1.00;;;10.90;46.50;;;;;;4942740;29;20431;-91
2021/03/13 11:33:28;;;;;;;2.55;0.90;;;11.30;46.50;;;;;;4953798;29;20443;-90
2021/03/13 11:36:21;;;;;;;2.72;0.80;;;11.10;45.10;;;;;;4939937;29;20416;-96
2021/03/13 11:39:02;;;;;;;2.08;0.95;;;10.60;46.20;;;;;;4953237;29;20514;-94
2021/03/13 11:42:27;;;;;;;3.42;1.50;;;10.30;47.40;;;;;;4943601;29;20419;-91
2021/03/13 11:45:45;;;;;;;1.20;0.70;;;10.50;47.80;;;;;;5057622;23;20436;-93
2021/03/13 11:48:59;;;;;;;1.58;0.80;;;10.50;48.40;;;;;;4950440;29;20456;-93
2021/03/13 11:51:58;;;;;;;3.08;1.50;;;10.40;49.10;;;;;;4942329;29;20423;-93
2021/03/13 11:54:31;;;;;;;1.52;0.88;;;10.60;46.30;;;;;;4952467;29;20423;-94
2021/03/13 11:57:12;;;;;;;1.88;0.90;;;10.70;46.30;;;;;;4949751;29;20475;-90
2021/03/13 12:00:08;;;;;;;3.40;0.82;;;11.00;46.60;;;;;;4935834;29;20430;-91
2021/03/13 12:42:02;;;;;;;3.03;0.90;;;13.20;41.10;;;;;;5145981;23;20432;-96
2021/03/13 12:54:28;;;;;;;2.20;0.90;;;14.10;37.60;;;;;;5062176;23;20418;-91
2021/03/13 12:57:33;;;;;;;3.05;1.08;;;13.80;38.40;;;;;;4963654;28;20427;-91
2021/03/13 13:00:41;;;;;;;1.40;0.77;;;13.80;38.40;;;;;;5027969;28;20421;-91
2021/03/13 13:03:55;;;;;;;2.08;0.82;;;13.90;37.90;;;;;;5028238;28;20452;-91
2021/03/13 13:06:55;;;;;;;1.30;0.82;;;13.60;37.70;;;;;;5027664;28;20491;-91
2021/03/13 13:09:54;;;;;;;1.37;0.60;;;13.60;36.60;;;;;;5027307;28;20408;-91
2021/03/13 13:12:59;;;;;;;2.15;1.10;;;13.40;37.50;;;;;;5026251;28;20488;-91
2021/03/13 13:16:11;;;;;;;1.63;0.70;;;12.90;39.20;;;;;;4934551;29;20423;-91
2021/03/13 13:19:30;;;;;;;2.28;0.90;;;13.20;39.40;;;;;;4892909;29;20481;-91
2021/03/13 13:25:22;;;;;;;2.28;0.95;;;14.00;36.80;;;;;;1952368;23;20590;-94
2021/03/13 13:27:50;;;;;;;3.60;0.80;;;14.10;38.00;;;;;;4996410;28;20441;-96
2021/03/13 13:30:17;;;;;;;3.65;1.00;;;14.30;39.00;;;;;;4980493;28;20429;-95
2021/03/13 13:32:45;;;;;;;3.55;0.93;;;14.50;36.80;;;;;;4979929;28;20450;-93
2021/03/13 13:35:14;;;;;;;2.10;0.80;;;14.70;36.00;;;;;;4977789;28;20422;-95
2021/03/13 13:37:41;;;;;;;2.47;0.93;;;14.50;35.00;;;;;;4961106;28;20475;-95
2021/03/13 13:44:06;;;;;;;2.20;1.00;;;14.20;36.90;;;;;;4992785;28;20456;-93
2021/03/13 13:50:04;;;;;;;3.65;1.00;;;15.00;36.30;;;;;;5005452;28;20442;-96
2021/03/13 13:53:11;;;;;;;1.83;1.27;;;14.80;36.10;;;;;;4993360;28;20425;-91
2021/03/13 13:59:41;;;;;;;2.35;1.10;;;15.10;36.10;;;;;;4997775;28;20423;-92
2021/03/13 14:02:38;;;;;;;1.85;0.98;;;15.90;37.40;;;;;;4976255;28;20446;-92
2021/03/13 14:05:13;;;;;;;3.63;1.08;;;15.80;34.80;;;;;;4992193;28;20449;-95
2021/03/13 14:08:01;;;;;;;3.07;1.00;;;15.30;35.00;;;;;;4979510;28;20474;-93
2021/03/13 14:10:57;;;;;;;1.95;0.90;;;15.30;36.70;;;;;;4993873;28;20441;-95
2021/03/13 14:13:42;;;;;;;2.13;1.00;;;14.90;37.30;;;;;;4994077;28;20441;-96
2021/03/13 14:16:44;;;;;;;2.22;1.00;;;14.20;38.90;;;;;;4972309;28;20413;-94
2021/03/13 14:23:28;;;;;;;2.13;1.00;;;13.40;39.90;;;;;;5028034;28;20459;-91
2021/03/13 14:28:40;;;;;;;3.00;1.20;;;12.40;43.40;;;;;;5380012;23;20416;-91
2021/03/13 14:31:26;;;;;;;4.75;1.40;;;12.10;45.00;;;;;;5025615;28;20500;-90
2021/03/13 14:40:31;;;;;;;4.88;1.60;;;12.30;44.00;;;;;;6108266;23;20365;-92
2021/03/13 14:44:07;;;;;;;4.32;2.00;;;12.40;44.40;;;;;;4946255;29;20475;-91
2021/03/13 14:46:47;;;;;;;3.95;1.23;;;12.60;43.70;;;;;;4948661;29;20451;-93
2021/03/13 14:49:41;;;;;;;5.90;3.03;;;12.70;43.80;;;;;;4945629;29;20435;-93
2021/03/13 14:52:11;;;;;;;3.05;1.10;;;12.40;43.70;;;;;;4937854;29;20438;-93
2021/03/13 14:54:39;;;;;;;2.85;0.93;;;12.00;44.90;;;;;;4938178;29;20453;-95
2021/03/13 14:57:07;;;;;;;2.95;1.05;;;11.70;44.60;;;;;;4935911;29;20435;-93
2021/03/13 14:59:34;;;;;;;4.40;1.60;;;11.40;44.10;;;;;;4936120;29;20780;-93
2021/03/13 15:02:01;;;;;;;2.05;1.23;;;11.10;46.70;;;;;;4935612;29;20435;-92
2021/03/13 15:04:28;;;;;;;1.75;0.82;;;10.70;45.80;;;;;;4935222;29;20431;-93
2021/03/13 15:06:55;;;;;;;2.33;1.00;;;10.40;46.60;;;;;;4937397;29;20435;-90
2021/03/13 15:09:22;;;;;;;2.70;1.00;;;10.20;48.20;;;;;;4935687;29;20435;-93
2021/03/13 15:11:48;;;;;;;4.90;0.90;;;10.10;49.40;;;;;;4935440;29;20427;-92
2021/03/13 15:14:15;;;;;;;3.13;1.02;;;9.90;49.90;;;;;;4935617;29;20430;-93
2021/03/13 15:16:42;;;;;;;2.55;0.82;;;9.70;51.40;;;;;;4936096;29;20434;-94
2021/03/13 15:19:08;;;;;;;2.00;1.00;;;9.60;51.80;;;;;;4935655;29;20432;-95
2021/03/13 15:21:35;;;;;;;4.32;1.00;;;9.40;51.80;;;;;;4936203;29;20427;-94
2021/03/13 15:24:02;;;;;;;1.52;0.80;;;9.30;51.70;;;;;;4936311;29;20447;-96
2021/03/13 15:26:29;;;;;;;2.90;0.80;;;9.10;52.30;;;;;;4936366;29;20456;-96
2021/03/13 15:28:56;;;;;;;3.20;1.20;;;9.00;52.40;;;;;;4936175;29;20442;-95
2021/03/13 15:31:24;;;;;;;2.87;1.40;;;8.90;52.60;;;;;;4935614;29;20490;-95
2021/03/13 15:33:52;;;;;;;3.43;1.53;;;8.70;53.40;;;;;;4940468;29;20474;-95
2021/03/13 15:36:18;;;;;;;3.70;1.77;;;8.60;52.50;;;;;;4946245;29;20426;-96
2021/03/13 15:38:45;;;;;;;1.52;0.80;;;8.40;53.20;;;;;;4955710;29;20430;-96
2021/03/13 15:41:24;;;;;;;1.48;0.75;;;8.40;50.50;;;;;;4959195;28;20438;-94
2021/03/13 15:43:51;;;;;;;1.42;0.57;;;8.30;50.20;;;;;;4959641;28;20428;-93
2021/03/13 15:46:18;;;;;;;2.38;1.17;;;8.30;48.50;;;;;;4957909;28;20435;-93
2021/03/13 15:48:48;;;;;;;2.72;1.25;;;8.20;48.20;;;;;;4957862;28;20937;-93
2021/03/13 15:51:15;;;;;;;3.10;0.53;;;8.30;48.90;;;;;;4957429;28;20888;-95
2021/03/13 15:53:41;;;;;;;1.85;0.70;;;8.30;47.60;;;;;;4957581;28;20451;-95
2021/03/13 15:56:08;;;;;;;2.13;0.70;;;8.20;46.30;;;;;;4960393;28;20434;-91
2021/03/13 15:58:35;;;;;;;0.70;0.55;;;8.30;47.10;;;;;;4958650;28;20432;-91
2021/03/13 16:01:02;;;;;;;1.10;0.60;;;8.30;46.20;;;;;;4960077;28;20919;-96
2021/03/13 16:03:29;;;;;;;0.88;0.70;;;8.30;46.40;;;;;;4958790;28;20499;-94
2021/03/13 16:05:56;;;;;;;0.40;0.40;;;8.40;45.50;;;;;;4957998;28;20454;-96
2021/03/13 16:08:22;;;;;;;1.25;0.80;;;8.40;45.10;;;;;;4959348;28;20749;-89
2021/03/13 16:10:52;;;;;;;0.73;0.57;;;8.40;44.60;;;;;;4962673;28;20465;-96
2021/03/13 16:13:19;;;;;;;1.95;0.68;;;8.50;44.60;;;;;;4962283;28;20424;-95
2021/03/13 16:15:46;;;;;;;3.20;0.70;;;8.40;45.80;;;;;;4959309;28;20953;-96
2021/03/13 16:18:12;;;;;;;2.72;0.85;;;8.40;46.50;;;;;;4963794;28;20484;-96
2021/03/13 16:20:40;;;;;;;3.08;1.13;;;8.30;48.10;;;;;;4961478;28;20551;-96
2021/03/13 16:23:06;;;;;;;2.45;0.88;;;8.20;47.70;;;;;;4967396;28;20431;-96
2021/03/13 16:25:42;;;;;;;2.30;1.00;;;8.10;48.50;;;;;;4962903;28;20503;-96
2021/03/13 16:28:09;;;;;;;0.88;0.60;;;8.10;48.70;;;;;;4961549;28;20452;-96
2021/03/13 16:30:36;;;;;;;2.33;0.63;;;8.10;48.90;;;;;;4962172;28;20424;-94
2021/03/13 16:33:04;;;;;;;1.40;0.80;;;8.10;49.30;;;;;;4962561;28;21100;-91
2021/03/13 16:35:32;;;;;;;1.02;0.63;;;8.00;50.50;;;;;;4972373;28;20420;-94
2021/03/13 16:38:14;;;;;;;1.05;0.60;;;8.00;51.30;;;;;;4982575;28;20424;-94
2021/03/13 16:40:41;;;;;;;1.05;0.80;;;8.00;52.30;;;;;;4967067;28;20498;-92
2021/03/13 16:43:09;;;;;;;1.05;0.63;;;8.00;53.70;;;;;;4964561;29;20783;-96
2021/03/13 16:45:39;;;;;;;1.33;0.63;;;7.80;54.40;;;;;;4964761;29;20472;-96
2021/03/13 16:48:09;;;;;;;1.50;0.70;;;7.80;55.80;;;;;;4962199;29;20457;-96
2021/03/13 16:50:36;;;;;;;1.00;0.80;;;7.80;56.10;;;;;;4960154;29;20426;-93
2021/03/13 16:58:34;;;;;;;1.73;0.80;;;7.70;58.00;;;;;;5277951;23;20422;-93
2021/03/13 17:30:54;;;;;;;0.73;0.55;;;7.80;60.70;;;;;;3205690;23;20613;-96
2021/03/13 18:26:26;;;;;;;1.00;0.60;;;7.70;65.60;;;;;;4953709;29;20461;-94
2021/03/13 18:29:41;;;;;;;1.33;0.70;;;7.50;70.20;;;;;;4918274;29;20422;-93
2021/03/13 18:32:56;;;;;;;3.05;0.50;;;6.60;79.20;;;;;;4897581;29;20476;-94
2021/03/13 21:53:41;;;;;;;374.27;11.65;;;1.10;99.90;;;;;;5046150;23;20916;-96
2021/03/13 21:56:28;;;;;;;411.40;10.98;;;1.00;99.90;;;;;;4960272;29;20679;-96
2021/03/13 21:59:33;;;;;;;648.75;21.98;;;1.00;99.90;;;;;;4947031;29;20434;-96
2021/03/13 22:02:38;;;;;;;194.90;5.50;;;1.00;99.90;;;;;;4892768;29;20461;-96
2021/03/13 22:05:25;;;;;;;271.13;10.38;;;1.00;99.90;;;;;;4941013;29;20550;-95
2021/03/13 22:31:03;;;;;;;0.15;0.15;;;1.20;99.90;;;;;;5023707;28;20500;-95
2021/03/13 22:33:52;;;;;;;2.50;0.90;;;1.20;99.90;;;;;;4997550;28;20426;-96
2021/03/13 22:36:41;;;;;;;0.20;0.20;;;1.20;99.90;;;;;;5008472;28;20907;-95
2021/03/13 23:02:25;;;;;;;0.20;0.20;;;1.30;99.90;;;;;;4843401;29;20467;-95
2021/03/13 23:05:24;;;;;;;0.20;0.20;;;1.10;99.90;;;;;;5006665;23;20424;-95
2021/03/13 23:14:23;;;;;;;0.20;0.20;;;1.20;99.90;;;;;;5145323;23;20429;-96
